createdAt,value
2023-01-27T00:02:04.630Z,4.84
2023-01-27T00:04:31.001Z,4.84
2023-01-27T00:07:00.364Z,4.89
2023-01-27T00:09:44.062Z,4.91
2023-01-27T00:12:38.153Z,4.85
2023-01-27T00:15:06.111Z,4.79
2023-01-27T00:17:34.951Z,4.80
2023-01-27T00:20:03.838Z,4.78
2023-01-27T00:22:50.861Z,4.74
2023-01-27T00:25:17.709Z,4.71
2023-01-27T00:27:45.187Z,4.67
2023-01-27T00:30:18.045Z,4.65
2023-01-27T00:33:05.512Z,4.61
2023-01-27T00:35:33.014Z,4.62
2023-01-27T00:38:00.305Z,4.69
2023-01-27T00:40:27.494Z,4.68
2023-01-27T00:42:56.124Z,4.70
2023-01-27T00:45:41.778Z,4.66
2023-01-27T00:48:10.535Z,4.69
2023-01-27T00:50:38.597Z,4.71
2023-01-27T00:53:06.660Z,4.70
2023-01-27T00:55:34.401Z,4.72
2023-01-27T00:58:07.145Z,4.72
2023-01-27T01:00:36.823Z,4.76
2023-01-27T01:03:06.872Z,4.72
2023-01-27T01:05:34.384Z,4.68
2023-01-27T01:08:04.665Z,4.67
2023-01-27T01:10:32.385Z,4.73
2023-01-27T01:12:59.749Z,4.75
2023-01-27T01:15:27.063Z,4.78
2023-01-27T01:17:57.343Z,4.78
2023-01-27T01:20:29.612Z,4.82
2023-01-27T01:23:18.133Z,4.84
2023-01-27T01:25:52.414Z,4.88
2023-01-27T01:28:21.838Z,4.95
2023-01-27T01:30:48.965Z,4.95
2023-01-27T01:33:20.117Z,4.89
2023-01-27T01:35:47.631Z,4.79
2023-01-27T01:38:15.788Z,4.81
2023-01-27T01:40:46.833Z,4.78
2023-01-27T01:43:17.598Z,4.86
2023-01-27T01:45:48.413Z,4.82
2023-01-27T01:48:37.365Z,4.77
2023-01-27T01:51:19.063Z,4.76
2023-01-27T01:54:05.772Z,4.68
2023-01-27T01:56:46.642Z,4.62
2023-01-27T01:59:19.316Z,4.76
2023-01-27T02:01:46.159Z,4.68
2023-01-27T02:04:17.304Z,4.66
2023-01-27T02:06:59.600Z,4.67
2023-01-27T02:09:27.413Z,4.55
2023-01-27T02:11:54.142Z,4.67
2023-01-27T02:14:20.873Z,4.56
2023-01-27T02:16:47.537Z,4.66
2023-01-27T02:19:30.639Z,4.71
2023-01-27T02:21:57.870Z,4.59
2023-01-27T02:24:31.113Z,4.56
2023-01-27T02:26:59.037Z,4.61
2023-01-27T02:29:25.797Z,4.74
2023-01-27T02:31:52.661Z,4.69
2023-01-27T02:34:23.660Z,4.61
2023-01-27T02:36:52.846Z,4.68
2023-01-27T02:39:21.999Z,4.58
2023-01-27T02:42:00.332Z,4.61
2023-01-27T02:44:26.683Z,4.57
2023-01-27T02:46:53.217Z,4.55
2023-01-27T02:49:20.015Z,4.56
2023-01-27T02:51:46.376Z,4.58
2023-01-27T02:54:12.849Z,4.62
2023-01-27T02:56:39.239Z,4.48
2023-01-27T02:59:05.625Z,4.55
2023-01-27T03:01:32.735Z,4.57
2023-01-27T03:03:59.516Z,4.56
2023-01-27T03:06:26.323Z,4.55
2023-01-27T03:09:06.811Z,4.56
2023-01-27T03:11:51.993Z,4.56
2023-01-27T03:14:18.454Z,4.50
2023-01-27T03:17:05.657Z,4.48
2023-01-27T03:19:31.973Z,4.53
2023-01-27T03:22:01.704Z,4.59
2023-01-27T03:24:28.110Z,4.63
2023-01-27T03:26:54.513Z,4.67
2023-01-27T03:29:41.389Z,4.54
2023-01-27T03:32:07.753Z,4.59
2023-01-27T03:34:34.130Z,4.62
2023-01-27T03:37:19.274Z,4.62
2023-01-27T03:40:07.750Z,4.53
2023-01-27T03:42:53.109Z,4.60
2023-01-27T03:45:38.538Z,4.62
2023-01-27T03:48:08.127Z,4.65
2023-01-27T03:50:38.058Z,4.62
2023-01-27T03:53:07.020Z,4.58
2023-01-27T03:55:38.647Z,4.68
2023-01-27T03:58:20.607Z,4.58
2023-01-27T04:00:49.268Z,4.52
2023-01-27T04:03:34.325Z,4.40
2023-01-27T04:06:27.404Z,4.55
2023-01-27T04:08:54.260Z,4.38
2023-01-27T04:11:42.611Z,4.44
2023-01-27T04:14:09.719Z,4.49
2023-01-27T04:16:39.103Z,4.52
2023-01-27T04:19:08.134Z,4.49
2023-01-27T04:21:35.504Z,4.52
2023-01-27T04:24:05.139Z,4.57
2023-01-27T04:26:41.681Z,4.62
2023-01-27T04:29:08.508Z,4.61
2023-01-27T04:31:35.405Z,4.56
2023-01-27T04:34:02.375Z,4.55
2023-01-27T04:36:34.836Z,4.42
2023-01-27T04:39:02.841Z,4.56
2023-01-27T04:41:29.572Z,4.61
2023-01-27T04:43:56.131Z,4.56
2023-01-27T04:46:26.168Z,4.63
2023-01-27T04:48:53.866Z,4.65
2023-01-27T04:51:25.246Z,4.60
2023-01-27T04:53:53.261Z,4.62
2023-01-27T04:56:41.225Z,4.70
2023-01-27T04:59:10.946Z,4.69
2023-01-27T05:01:41.036Z,4.75
2023-01-27T05:04:12.400Z,4.71
2023-01-27T05:06:40.021Z,4.59
2023-01-27T05:09:09.384Z,4.66
2023-01-27T05:11:37.430Z,4.63
2023-01-27T05:14:06.887Z,4.66
2023-01-27T05:16:33.318Z,4.71
2023-01-27T05:18:59.836Z,4.70
2023-01-27T05:21:38.080Z,4.56
2023-01-27T05:24:04.573Z,4.56
2023-01-27T05:26:31.076Z,4.57
2023-01-27T05:28:58.440Z,4.58
2023-01-27T05:31:34.348Z,4.61
2023-01-27T05:34:01.623Z,4.58
2023-01-27T05:36:30.423Z,4.61
2023-01-27T05:38:58.398Z,4.59
2023-01-27T05:41:24.834Z,4.58
2023-01-27T05:43:52.529Z,4.57
2023-01-27T05:46:20.427Z,4.61
2023-01-27T05:48:48.113Z,4.59
2023-01-27T05:51:15.635Z,4.65
2023-01-27T05:53:42.383Z,4.69
2023-01-27T05:56:10.466Z,4.65
2023-01-27T05:58:38.604Z,4.62
2023-01-27T06:01:09.166Z,4.71
2023-01-27T06:03:35.759Z,4.75
2023-01-27T06:06:02.705Z,4.68
2023-01-27T06:08:29.404Z,4.61
2023-01-27T06:10:56.208Z,4.63
2023-01-27T06:13:25.279Z,4.68
2023-01-27T06:15:51.655Z,4.63
2023-01-27T06:18:21.400Z,4.64
2023-01-27T06:20:48.024Z,4.75
2023-01-27T06:23:15.722Z,4.73
2023-01-27T06:25:46.247Z,4.73
2023-01-27T06:28:31.409Z,4.72
2023-01-27T06:31:04.396Z,4.79
2023-01-27T06:33:30.793Z,4.75
2023-01-27T06:36:05.159Z,4.78
2023-01-27T06:38:40.088Z,4.77
2023-01-27T06:41:18.777Z,4.82
2023-01-27T06:43:45.184Z,4.78
2023-01-27T06:46:13.948Z,4.73
2023-01-27T06:48:40.589Z,4.71
2023-01-27T06:51:07.058Z,4.75
2023-01-27T06:53:34.728Z,4.81
2023-01-27T06:56:01.518Z,4.78
2023-01-27T06:58:28.706Z,4.81
2023-01-27T07:01:00.974Z,4.73
2023-01-27T07:03:27.445Z,4.80
2023-01-27T07:05:53.843Z,4.82
2023-01-27T07:08:53.566Z,4.79
2023-01-27T07:11:25.289Z,4.76
2023-01-27T07:13:54.699Z,4.81
2023-01-27T07:16:26.918Z,4.80
2023-01-27T07:18:53.268Z,4.79
2023-01-27T07:21:19.822Z,4.76
2023-01-27T07:23:58.470Z,4.79
2023-01-27T07:26:32.088Z,4.88
2023-01-27T07:29:16.791Z,4.92
2023-01-27T07:31:44.861Z,4.82
2023-01-27T07:34:39.616Z,4.87
2023-01-27T07:37:29.267Z,4.82
2023-01-27T07:40:14.850Z,4.87
2023-01-27T07:43:15.826Z,4.93
2023-01-27T07:46:00.795Z,5.01
2023-01-27T07:48:56.097Z,4.89
2023-01-27T07:51:42.236Z,4.94
2023-01-27T07:54:27.457Z,4.99
2023-01-27T07:57:12.824Z,4.99
2023-01-27T08:00:18.679Z,5.01
2023-01-27T08:03:05.971Z,5.09
2023-01-27T08:05:34.595Z,5.00
2023-01-27T08:08:20.951Z,5.00
2023-01-27T08:10:51.420Z,5.04
2023-01-27T08:13:21.039Z,4.96
2023-01-27T08:16:03.460Z,4.99
2023-01-27T08:18:41.291Z,5.01
2023-01-27T08:21:41.610Z,5.01
2023-01-27T08:24:10.302Z,4.95
2023-01-27T08:26:36.638Z,4.89
2023-01-27T08:29:03.003Z,5.00
2023-01-27T08:31:29.393Z,5.10
2023-01-27T08:33:55.843Z,5.04
2023-01-27T08:36:22.961Z,5.09
2023-01-27T08:38:55.951Z,5.14
2023-01-27T08:41:23.817Z,5.23
2023-01-27T08:43:50.238Z,5.24
2023-01-27T08:46:17.212Z,5.35
2023-01-27T08:48:45.248Z,5.42
2023-01-27T08:51:13.048Z,5.41
2023-01-27T08:53:39.448Z,5.34
2023-01-27T08:56:07.566Z,5.41
2023-01-27T08:58:34.616Z,5.38
2023-01-27T09:01:04.774Z,5.44
2023-01-27T09:03:31.629Z,5.45
2023-01-27T09:06:01.709Z,5.41
2023-01-27T09:08:29.680Z,5.50
2023-01-27T09:10:56.053Z,5.46
2023-01-27T09:13:22.668Z,5.48
2023-01-27T09:15:52.047Z,5.60
2023-01-27T09:18:18.650Z,5.51
2023-01-27T09:20:47.412Z,5.64
2023-01-27T09:23:13.905Z,5.68
2023-01-27T09:25:40.396Z,5.70
2023-01-27T09:28:09.920Z,5.79
2023-01-27T09:30:36.514Z,5.73
2023-01-27T09:33:04.652Z,5.71
2023-01-27T09:35:35.159Z,5.72
2023-01-27T09:38:03.335Z,5.90
2023-01-27T09:40:52.714Z,5.97
2023-01-27T09:43:37.869Z,5.99
2023-01-27T09:46:14.795Z,5.97
2023-01-27T09:48:44.440Z,5.98
2023-01-27T09:51:31.621Z,6.01
2023-01-27T09:54:04.786Z,6.14
2023-01-27T09:56:37.078Z,6.16
2023-01-27T09:59:04.816Z,6.16
2023-01-27T10:01:42.347Z,6.26
2023-01-27T10:04:11.697Z,6.33
2023-01-27T10:06:47.673Z,6.23
2023-01-27T10:09:23.332Z,6.24
2023-01-27T10:11:52.674Z,6.20
2023-01-27T10:14:38.440Z,6.11
2023-01-27T10:17:10.864Z,6.01
2023-01-27T10:19:47.548Z,6.14
2023-01-27T10:22:30.151Z,6.15
2023-01-27T10:25:28.843Z,6.12
2023-01-27T10:27:58.845Z,6.22
2023-01-27T10:30:33.670Z,6.27
2023-01-27T10:33:09.197Z,6.37
2023-01-27T10:35:44.530Z,6.31
2023-01-27T10:38:18.040Z,6.39
2023-01-27T10:40:52.635Z,6.43
2023-01-27T10:43:39.302Z,6.31
2023-01-27T10:46:21.115Z,6.19
2023-01-27T10:48:50.516Z,6.23
2023-01-27T10:51:17.172Z,6.33
2023-01-27T10:53:49.771Z,6.37
2023-01-27T10:56:32.548Z,6.30
2023-01-27T10:59:05.068Z,6.35
2023-01-27T11:01:51.767Z,6.34
2023-01-27T11:04:23.922Z,6.42
2023-01-27T11:06:51.635Z,6.51
2023-01-27T11:09:27.342Z,6.73
2023-01-27T11:11:54.925Z,6.64
2023-01-27T11:14:22.677Z,6.59
2023-01-27T11:16:50.911Z,6.67
2023-01-27T11:19:29.294Z,6.70
2023-01-27T11:22:07.197Z,6.71
2023-01-27T11:24:42.371Z,6.72
2023-01-27T11:27:16.605Z,6.74
2023-01-27T11:29:48.745Z,6.52
2023-01-27T11:32:34.486Z,6.76
2023-01-27T11:35:05.734Z,6.78
2023-01-27T11:37:37.469Z,6.87
2023-01-27T11:40:04.608Z,6.78
2023-01-27T11:42:33.463Z,6.79
2023-01-27T11:45:00.770Z,6.71
2023-01-27T11:47:29.595Z,6.68
2023-01-27T11:49:56.393Z,6.65
2023-01-27T11:52:29.582Z,6.76
2023-01-27T11:55:00.777Z,6.74
2023-01-27T11:57:30.483Z,6.68
2023-01-27T12:00:12.825Z,6.82
2023-01-27T12:02:44.472Z,6.78
2023-01-27T12:05:15.197Z,6.80
2023-01-27T12:07:41.539Z,6.72
2023-01-27T12:10:28.072Z,6.72
2023-01-27T12:12:55.136Z,6.72
2023-01-27T12:15:22.436Z,6.75
2023-01-27T12:17:51.295Z,6.73
2023-01-27T12:20:36.630Z,6.81
2023-01-27T12:23:23.272Z,6.79
2023-01-27T12:25:54.955Z,6.85
2023-01-27T12:28:27.535Z,6.94
2023-01-27T12:30:56.360Z,6.98
2023-01-27T12:33:31.771Z,7.02
2023-01-27T12:36:00.619Z,7.11
2023-01-27T12:38:31.520Z,7.07
2023-01-27T12:41:02.653Z,7.03
2023-01-27T12:43:29.102Z,6.81
2023-01-27T12:46:08.174Z,7.05
2023-01-27T12:48:43.929Z,7.07
2023-01-27T12:51:19.755Z,7.06
2023-01-27T12:53:47.704Z,7.05
2023-01-27T12:56:18.373Z,7.14
2023-01-27T12:58:54.111Z,7.19
2023-01-27T13:01:41.326Z,7.24
2023-01-27T13:04:16.785Z,7.15
2023-01-27T13:06:47.418Z,7.21
2023-01-27T13:09:36.899Z,7.22
2023-01-27T13:12:16.810Z,7.19
2023-01-27T13:14:43.602Z,7.22
2023-01-27T13:17:28.950Z,7.15
2023-01-27T13:19:58.323Z,7.11
2023-01-27T13:22:26.613Z,7.11
2023-01-27T13:24:56.862Z,7.05
2023-01-27T13:27:24.522Z,6.97
2023-01-27T13:30:01.077Z,6.86
2023-01-27T13:32:30.690Z,6.78
2023-01-27T13:35:05.392Z,6.83
2023-01-27T13:37:34.057Z,6.77
2023-01-27T13:40:09.109Z,6.87
2023-01-27T13:42:40.211Z,6.78
2023-01-27T13:45:18.350Z,6.76
2023-01-27T13:47:53.371Z,6.81
2023-01-27T13:50:30.073Z,6.79
2023-01-27T13:52:59.661Z,6.67
2023-01-27T13:55:41.323Z,6.62
2023-01-27T13:58:26.775Z,6.60
2023-01-27T14:01:16.449Z,6.57
2023-01-27T14:03:49.279Z,6.58
2023-01-27T14:06:36.225Z,6.66
2023-01-27T14:09:14.517Z,6.57
2023-01-27T14:11:51.215Z,6.71
2023-01-27T14:14:58.143Z,6.77
2023-01-27T14:17:54.745Z,6.85
2023-01-27T14:20:29.820Z,6.89
2023-01-27T14:23:16.217Z,6.94
2023-01-27T14:25:52.416Z,6.90
2023-01-27T14:28:18.755Z,6.80
2023-01-27T14:30:48.047Z,6.70
2023-01-27T14:33:20.362Z,6.70
2023-01-27T14:35:48.956Z,6.65
2023-01-27T14:38:25.569Z,6.55
2023-01-27T14:41:15.621Z,6.53
2023-01-27T14:43:42.048Z,6.48
2023-01-27T14:46:17.620Z,6.42
2023-01-27T14:49:01.160Z,6.49
2023-01-27T14:51:33.647Z,6.56
2023-01-27T14:54:28.081Z,6.62
2023-01-27T14:57:13.271Z,6.70
2023-01-27T14:59:42.602Z,6.73
2023-01-27T15:02:11.441Z,6.72
2023-01-27T15:04:50.353Z,6.58
2023-01-27T15:07:33.620Z,6.56
2023-01-27T15:10:06.023Z,6.53
2023-01-27T15:12:48.176Z,6.54
2023-01-27T15:15:20.794Z,6.54
2023-01-27T15:18:06.049Z,6.50
2023-01-27T15:20:32.434Z,6.56
2023-01-27T15:23:17.621Z,6.54
2023-01-27T15:25:47.845Z,6.63
2023-01-27T15:28:15.961Z,6.63
2023-01-27T15:31:05.305Z,6.55
2023-01-27T15:33:47.017Z,6.62
2023-01-27T15:36:33.283Z,6.49
2023-01-27T15:39:11.258Z,6.54
2023-01-27T15:41:38.224Z,6.50
2023-01-27T15:44:15.905Z,6.49
2023-01-27T15:46:49.724Z,6.40
2023-01-27T15:49:21.181Z,6.34
2023-01-27T15:51:55.786Z,6.29
2023-01-27T15:54:32.712Z,6.36
2023-01-27T15:57:03.333Z,6.26
2023-01-27T15:59:31.365Z,6.29
2023-01-27T16:02:03.374Z,6.10
2023-01-27T16:04:33.257Z,6.11
2023-01-27T16:07:03.836Z,6.14
2023-01-27T16:09:40.311Z,6.12
2023-01-27T16:15:19.856Z,6.17
2023-01-27T16:17:56.552Z,6.16
2023-01-27T16:20:26.609Z,6.14
2023-01-27T16:22:59.532Z,6.03
2023-01-27T16:25:31.544Z,6.01
2023-01-27T16:28:03.850Z,5.91
2023-01-27T16:30:32.038Z,5.94
2023-01-27T16:33:21.885Z,5.97
2023-01-27T16:36:00.102Z,5.87
2023-01-27T16:38:28.344Z,5.90
2023-01-27T16:40:56.903Z,6.00
2023-01-27T16:43:26.398Z,6.01
2023-01-27T16:45:54.503Z,6.04
2023-01-27T16:48:27.613Z,6.06
2023-01-27T16:50:56.614Z,5.90
2023-01-27T16:53:24.615Z,5.98
2023-01-27T16:55:59.885Z,5.84
2023-01-27T16:58:39.724Z,5.84
2023-01-27T17:01:20.085Z,5.85
2023-01-27T17:03:47.069Z,5.95
2023-01-27T17:06:17.416Z,5.89
2023-01-27T17:08:47.257Z,5.94
2023-01-27T17:11:18.139Z,5.88
2023-01-27T17:14:28.688Z,5.84
2023-01-27T17:17:20.385Z,5.82
2023-01-27T17:20:06.739Z,5.82
2023-01-27T17:22:54.320Z,5.85
2023-01-27T17:25:39.641Z,5.84
2023-01-27T17:28:27.843Z,5.83
2023-01-27T17:31:19.851Z,5.76
2023-01-27T17:34:04.901Z,5.67
2023-01-27T17:37:31.194Z,5.67
2023-01-27T17:40:17.731Z,5.61
2023-01-27T17:43:16.341Z,5.68
2023-01-27T17:46:01.513Z,5.67
2023-01-27T17:48:58.200Z,5.65
2023-01-27T17:51:45.500Z,5.66
2023-01-27T17:54:33.190Z,5.75
2023-01-27T17:57:32.491Z,5.83
2023-01-27T18:00:26.509Z,5.72
2023-01-27T18:03:13.925Z,5.74
2023-01-27T18:05:58.743Z,5.83
2023-01-27T18:08:51.220Z,5.88
2023-01-27T18:11:37.397Z,5.82
2023-01-27T18:14:08.557Z,5.79
2023-01-27T18:16:35.489Z,5.84
2023-01-27T18:19:20.602Z,5.82
2023-01-27T18:21:47.328Z,5.87
2023-01-27T18:24:21.526Z,5.84
2023-01-27T18:26:48.651Z,5.79
2023-01-27T18:29:25.994Z,5.83
2023-01-27T18:31:55.591Z,5.80
2023-01-27T18:34:47.790Z,5.71
2023-01-27T18:37:25.074Z,5.68
2023-01-27T18:39:51.718Z,5.72
2023-01-27T18:42:23.605Z,5.71
2023-01-27T18:45:11.962Z,5.79
2023-01-27T18:47:39.161Z,5.78
2023-01-27T18:50:11.745Z,5.73
2023-01-27T18:52:38.702Z,5.77
2023-01-27T18:55:15.280Z,5.78
2023-01-27T18:57:42.574Z,5.80
2023-01-27T19:00:10.503Z,5.68
2023-01-27T19:02:37.117Z,5.71
2023-01-27T19:05:04.653Z,5.68
2023-01-27T19:07:32.609Z,5.63
2023-01-27T19:09:59.265Z,5.72
2023-01-27T19:12:28.050Z,5.69
2023-01-27T19:14:56.838Z,5.61
2023-01-27T19:17:24.239Z,5.68
2023-01-27T19:19:50.754Z,5.64
2023-01-27T19:22:17.914Z,5.68
2023-01-27T19:24:45.466Z,5.65
2023-01-27T19:27:13.421Z,5.63
2023-01-27T19:29:41.469Z,5.63
2023-01-27T19:32:10.776Z,5.56
2023-01-27T19:34:40.719Z,5.68
2023-01-27T19:37:17.459Z,5.65
2023-01-27T19:39:44.985Z,5.63
2023-01-27T19:42:13.170Z,5.62
2023-01-27T19:44:39.569Z,5.66
2023-01-27T19:47:09.822Z,5.63
2023-01-27T19:49:36.232Z,5.61
2023-01-27T19:52:04.322Z,5.63
2023-01-27T19:54:30.755Z,5.63
2023-01-27T19:56:57.126Z,5.70
2023-01-27T19:59:23.828Z,5.41
2023-01-27T20:01:50.638Z,5.59
2023-01-27T20:04:21.354Z,5.59
2023-01-27T20:06:49.188Z,5.42
2023-01-27T20:09:18.857Z,5.60
2023-01-27T20:11:45.427Z,5.63
2023-01-27T20:14:15.797Z,5.57
2023-01-27T20:16:42.450Z,5.50
2023-01-27T20:19:09.031Z,5.54
2023-01-27T20:21:35.421Z,5.50
2023-01-27T20:24:04.062Z,5.57
2023-01-27T20:26:31.226Z,5.56
2023-01-27T20:28:57.823Z,5.65
2023-01-27T20:31:29.081Z,5.73
2023-01-27T20:33:55.460Z,5.75
2023-01-27T20:36:22.945Z,5.66
2023-01-27T20:38:52.057Z,5.62
2023-01-27T20:41:26.361Z,5.44
2023-01-27T20:43:57.016Z,5.46
2023-01-27T20:46:23.968Z,5.47
2023-01-27T20:48:50.340Z,5.44
2023-01-27T20:51:16.708Z,5.45
2023-01-27T20:53:45.670Z,5.47
2023-01-27T20:56:16.538Z,5.49
2023-01-27T20:58:42.956Z,5.55
2023-01-27T21:01:16.765Z,5.57
2023-01-27T21:03:43.792Z,5.53
2023-01-27T21:06:11.320Z,5.48
2023-01-27T21:08:38.059Z,5.43
2023-01-27T21:11:05.571Z,5.51
2023-01-27T21:13:32.195Z,5.44
2023-01-27T21:16:00.803Z,5.45
2023-01-27T21:18:28.592Z,5.33
2023-01-27T21:20:55.801Z,5.40
2023-01-27T21:23:23.218Z,5.32
2023-01-27T21:25:52.709Z,5.34
2023-01-27T21:28:19.441Z,5.33
2023-01-27T21:30:46.262Z,5.39
2023-01-27T21:33:13.796Z,5.42
2023-01-27T21:35:42.084Z,5.30
2023-01-27T21:38:08.596Z,5.35
2023-01-27T21:40:35.285Z,5.36
2023-01-27T21:43:21.880Z,5.32
2023-01-27T21:45:58.155Z,5.26
2023-01-27T21:48:24.535Z,5.21
2023-01-27T21:50:51.434Z,5.22
2023-01-27T21:53:17.781Z,5.25
2023-01-27T21:55:44.152Z,5.24
2023-01-27T21:58:10.499Z,5.28
2023-01-27T22:00:40.335Z,5.30
2023-01-27T22:03:07.866Z,5.24
2023-01-27T22:05:35.835Z,5.27
2023-01-27T22:08:02.375Z,5.30
2023-01-27T22:10:29.502Z,5.22
2023-01-27T22:12:56.758Z,5.31
2023-01-27T22:15:23.754Z,5.36
2023-01-27T22:17:50.307Z,5.24
2023-01-27T22:20:17.205Z,5.31
2023-01-27T22:22:44.470Z,5.24
2023-01-27T22:25:15.806Z,5.30
2023-01-27T22:27:43.100Z,5.25
2023-01-27T22:30:12.588Z,5.30
2023-01-27T22:32:39.026Z,5.28
2023-01-27T22:35:05.935Z,5.32
2023-01-27T22:37:33.240Z,5.31
2023-01-27T22:39:59.564Z,5.26
2023-01-27T22:42:25.931Z,5.17
2023-01-27T22:44:55.171Z,5.10
2023-01-27T22:47:22.149Z,5.12
2023-01-27T22:49:48.591Z,5.07
2023-01-27T22:52:16.840Z,5.13
2023-01-27T22:54:44.026Z,5.08
2023-01-27T22:57:10.386Z,5.12
2023-01-27T22:59:36.800Z,5.05
2023-01-27T23:02:03.139Z,5.08
2023-01-27T23:04:29.487Z,5.06
2023-01-27T23:06:55.803Z,5.11
2023-01-27T23:09:22.306Z,5.17
2023-01-27T23:11:50.896Z,5.09
2023-01-27T23:14:18.137Z,5.03
2023-01-27T23:16:45.812Z,5.06
2023-01-27T23:19:14.438Z,5.03
2023-01-27T23:21:40.831Z,4.98
2023-01-27T23:24:07.842Z,4.95
2023-01-27T23:26:34.254Z,5.07
2023-01-27T23:29:00.556Z,5.09
2023-01-27T23:31:27.052Z,5.13
2023-01-27T23:33:53.458Z,5.14
2023-01-27T23:36:22.751Z,5.13
2023-01-27T23:38:49.144Z,5.12
2023-01-27T23:41:18.487Z,5.10
2023-01-27T23:43:45.388Z,5.06
2023-01-27T23:46:12.783Z,4.97
2023-01-27T23:48:39.405Z,4.90
2023-01-27T23:51:06.728Z,4.83
2023-01-27T23:53:33.073Z,4.54
2023-01-27T23:55:59.704Z,4.79
2023-01-27T23:58:26.644Z,4.74
